Terminal Aerodrome Forecast
Issued by NWS

Home | Current Version | Previous Version | Text Only | Print | Product List | Glossary On
Versions: 1 2 3 4 5 6 7 8 9 10 11 12 13 14 15 16 17 18
291
FTUS41 KBGM 252007 AAA
TAFRME
TAF AMD
KRME 252007Z 2520/2618 36006KT P6SM SKC
     FM260300 VRB04KT P6SM SKC
     FM261500 13008G15KT P6SM SCT100=

USA.gov is the U.S. government's official web portal to all federal, state and local government web resources and services.